Capitol Logistics 2187

Operating for AJT



KONT
Ontario International Airport
Ontario, California
KPHL
Philadelphia International Airport
Philadelphia, Pennsylvania

Activity Log

Date Flight Route Aircraft Duration
No Flights Yet

Route Details

Aircraft Information
Group: Boeing Common
Types: B752,B762,B763
Route Data
Demand: M
Distance: 2045nm
Duration: 4h 13m
Recm'd Route: RAJEE3 AVRRY EED J236 TBC J64 RSK J110 ALS J102 SLN J24 JUDGE J24 MCI J80 VHP ROD J152 JST BOJID2
Origin Wx: KONT 272153Z 26010KT 10SM BKN250 26/11 A2998 RMK AO2 SLP142 T02610111
Dest. Wx: KPHL 272154Z 18009KT 10SM FEW011 SCT110 OVC150 21/18 A2981 RMK AO2 RAE03 SLP095 P0000 T02110183
Notes:

Financial History
Total Freight: 0lbs
Average Load: 0lbs/flt
Fuel Used: 0lbs
Avg. Fuel Used: 0lbs/flt
Fuel Expense: $0
Avg. Fuel Expense: $0
Avg. Fuel Cost: $0/lbs
Total Gross Income: $0
Pilot Pay: $0
Total Expenses: $0
Total Revenue: $0
Average Revenue: $0